Terminal Aerodrome Forecast
Issued by NWS

Home | Current Version | Previous Version | Text Only | Print | Product List | Glossary On
Versions: 1 2 3 4 5 6 7 8 9 10 11 12 13 14 15 16 17 18 19 20 21 22 23 24 25 26 27 28 29 30 31 32 33 34 35 36 37 38 39 40 41 42 43 44 45 46
742
FTUS45 KPIH 222322
TAFSUN
TAF
KSUN 222322Z 2300/2406 10006KT P6SM VCSH SCT030 BKN060 OVC090
     FM230200 32007KT P6SM VCSH SCT060 BKN080 WS020/07035KT
     FM231000 32010KT P6SM BKN100
     FM232000 10009KT P6SM -SHRA SCT050 BKN060
     FM240300 32010KT P6SM VCSH BKN080
     AMD LTD TO CLD VIS AND WIND 2305/2313=

USA.gov is the U.S. government's official web portal to all federal, state and local government web resources and services.